sensor_id;sensor_type;location;lat;lon;timestamp;P1;durP1;ratioP1;P2;durP2;ratioP2
20593;SDS011;10455;48.732;10.266;2023-07-31T00:02:11;7.30;;;3.73;;
20593;SDS011;10455;48.732;10.266;2023-07-31T00:07:14;3.90;;;3.40;;
20593;SDS011;10455;48.732;10.266;2023-07-31T00:12:16;5.87;;;3.70;;
20593;SDS011;10455;48.732;10.266;2023-07-31T00:17:18;4.07;;;3.60;;
20593;SDS011;10455;48.732;10.266;2023-07-31T00:22:22;8.70;;;4.30;;
20593;SDS011;10455;48.732;10.266;2023-07-31T00:27:23;4.57;;;3.70;;
20593;SDS011;10455;48.732;10.266;2023-07-31T00:32:25;5.40;;;3.60;;
20593;SDS011;10455;48.732;10.266;2023-07-31T00:37:28;7.40;;;3.77;;
20593;SDS011;10455;48.732;10.266;2023-07-31T00:42:30;4.80;;;3.60;;
20593;SDS011;10455;48.732;10.266;2023-07-31T00:47:32;5.87;;;3.60;;
20593;SDS011;10455;48.732;10.266;2023-07-31T00:52:36;8.10;;;4.10;;
20593;SDS011;10455;48.732;10.266;2023-07-31T00:57:38;6.47;;;3.73;;
20593;SDS011;10455;48.732;10.266;2023-07-31T01:02:42;5.57;;;3.53;;
20593;SDS011;10455;48.732;10.266;2023-07-31T01:07:52;5.97;;;3.83;;
20593;SDS011;10455;48.732;10.266;2023-07-31T01:13:01;4.43;;;3.73;;
20593;SDS011;10455;48.732;10.266;2023-07-31T01:18:04;5.60;;;3.70;;
20593;SDS011;10455;48.732;10.266;2023-07-31T01:23:19;7.00;;;3.67;;
20593;SDS011;10455;48.732;10.266;2023-07-31T01:28:46;3.90;;;3.40;;
20593;SDS011;10455;48.732;10.266;2023-07-31T01:33:52;5.63;;;3.40;;
20593;SDS011;10455;48.732;10.266;2023-07-31T01:38:57;8.17;;;3.73;;
20593;SDS011;10455;48.732;10.266;2023-07-31T01:44:01;5.83;;;3.83;;
20593;SDS011;10455;48.732;10.266;2023-07-31T01:49:03;6.17;;;4.20;;
20593;SDS011;10455;48.732;10.266;2023-07-31T01:54:06;6.50;;;4.00;;
20593;SDS011;10455;48.732;10.266;2023-07-31T01:59:09;6.70;;;4.33;;
20593;SDS011;10455;48.732;10.266;2023-07-31T02:04:11;4.10;;;3.70;;
20593;SDS011;10455;48.732;10.266;2023-07-31T02:09:13;10.40;;;4.33;;
20593;SDS011;10455;48.732;10.266;2023-07-31T02:14:16;7.43;;;3.90;;
20593;SDS011;10455;48.732;10.266;2023-07-31T02:19:18;6.25;;;4.15;;
20593;SDS011;10455;48.732;10.266;2023-07-31T02:24:20;7.20;;;4.27;;
20593;SDS011;10455;48.732;10.266;2023-07-31T02:29:23;5.57;;;4.07;;
20593;SDS011;10455;48.732;10.266;2023-07-31T02:34:25;5.17;;;4.33;;
20593;SDS011;10455;48.732;10.266;2023-07-31T02:39:27;4.87;;;4.17;;
20593;SDS011;10455;48.732;10.266;2023-07-31T02:44:30;8.87;;;4.47;;
20593;SDS011;10455;48.732;10.266;2023-07-31T02:49:32;11.43;;;4.50;;
20593;SDS011;10455;48.732;10.266;2023-07-31T02:54:34;7.07;;;4.00;;
20593;SDS011;10455;48.732;10.266;2023-07-31T02:59:37;7.13;;;4.80;;
20593;SDS011;10455;48.732;10.266;2023-07-31T03:04:39;6.07;;;4.30;;
20593;SDS011;10455;48.732;10.266;2023-07-31T03:09:41;5.50;;;4.17;;
20593;SDS011;10455;48.732;10.266;2023-07-31T03:14:45;5.90;;;4.07;;
20593;SDS011;10455;48.732;10.266;2023-07-31T03:19:46;6.20;;;4.50;;
20593;SDS011;10455;48.732;10.266;2023-07-31T03:24:48;7.07;;;4.60;;
20593;SDS011;10455;48.732;10.266;2023-07-31T03:29:52;7.47;;;4.40;;
20593;SDS011;10455;48.732;10.266;2023-07-31T03:34:53;5.80;;;4.40;;
20593;SDS011;10455;48.732;10.266;2023-07-31T03:39:55;6.00;;;4.47;;
20593;SDS011;10455;48.732;10.266;2023-07-31T03:44:59;6.53;;;4.40;;
20593;SDS011;10455;48.732;10.266;2023-07-31T03:50:01;6.17;;;4.30;;
20593;SDS011;10455;48.732;10.266;2023-07-31T03:55:03;5.27;;;4.43;;
20593;SDS011;10455;48.732;10.266;2023-07-31T04:00:08;6.10;;;3.87;;
20593;SDS011;10455;48.732;10.266;2023-07-31T04:05:10;5.43;;;4.10;;
20593;SDS011;10455;48.732;10.266;2023-07-31T04:10:12;7.50;;;4.00;;
20593;SDS011;10455;48.732;10.266;2023-07-31T04:15:16;7.77;;;4.20;;
20593;SDS011;10455;48.732;10.266;2023-07-31T04:20:18;6.90;;;3.87;;
20593;SDS011;10455;48.732;10.266;2023-07-31T04:25:20;4.90;;;3.57;;
20593;SDS011;10455;48.732;10.266;2023-07-31T04:30:23;6.13;;;3.60;;
20593;SDS011;10455;48.732;10.266;2023-07-31T04:35:25;5.30;;;3.27;;
20593;SDS011;10455;48.732;10.266;2023-07-31T04:40:27;4.23;;;3.10;;
20593;SDS011;10455;48.732;10.266;2023-07-31T04:45:31;5.43;;;3.30;;
20593;SDS011;10455;48.732;10.266;2023-07-31T04:50:32;6.53;;;3.30;;
20593;SDS011;10455;48.732;10.266;2023-07-31T04:55:34;6.40;;;2.65;;
20593;SDS011;10455;48.732;10.266;2023-07-31T05:00:37;5.43;;;3.00;;
20593;SDS011;10455;48.732;10.266;2023-07-31T05:05:39;3.63;;;2.60;;
20593;SDS011;10455;48.732;10.266;2023-07-31T05:10:41;3.28;;;2.75;;
20593;SDS011;10455;48.732;10.266;2023-07-31T05:15:45;3.38;;;2.90;;
20593;SDS011;10455;48.732;10.266;2023-07-31T05:20:49;4.45;;;2.90;;
20593;SDS011;10455;48.732;10.266;2023-07-31T05:25:51;5.95;;;3.08;;
20593;SDS011;10455;48.732;10.266;2023-07-31T05:30:59;4.22;;;3.13;;
20593;SDS011;10455;48.732;10.266;2023-07-31T05:36:01;6.20;;;3.22;;
20593;SDS011;10455;48.732;10.266;2023-07-31T05:41:03;5.32;;;3.03;;
20593;SDS011;10455;48.732;10.266;2023-07-31T05:46:06;5.72;;;3.03;;
20593;SDS011;10455;48.732;10.266;2023-07-31T05:51:09;4.57;;;3.28;;
20593;SDS011;10455;48.732;10.266;2023-07-31T05:56:11;4.63;;;3.00;;
20593;SDS011;10455;48.732;10.266;2023-07-31T06:01:14;4.03;;;2.72;;
20593;SDS011;10455;48.732;10.266;2023-07-31T06:06:16;4.93;;;3.15;;
20593;SDS011;10455;48.732;10.266;2023-07-31T06:11:18;6.22;;;3.10;;
20593;SDS011;10455;48.732;10.266;2023-07-31T06:16:23;5.13;;;3.05;;
20593;SDS011;10455;48.732;10.266;2023-07-31T06:21:24;4.53;;;2.95;;
20593;SDS011;10455;48.732;10.266;2023-07-31T06:26:26;3.57;;;2.77;;
20593;SDS011;10455;48.732;10.266;2023-07-31T06:31:29;6.43;;;2.67;;
20593;SDS011;10455;48.732;10.266;2023-07-31T06:36:31;5.50;;;3.00;;
20593;SDS011;10455;48.732;10.266;2023-07-31T06:41:33;4.38;;;2.80;;
20593;SDS011;10455;48.732;10.266;2023-07-31T06:46:37;3.22;;;2.90;;
20593;SDS011;10455;48.732;10.266;2023-07-31T06:51:39;3.20;;;2.63;;
20593;SDS011;10455;48.732;10.266;2023-07-31T06:56:41;5.30;;;2.60;;
20593;SDS011;10455;48.732;10.266;2023-07-31T07:01:44;4.03;;;2.50;;
20593;SDS011;10455;48.732;10.266;2023-07-31T07:06:46;4.05;;;2.70;;
20593;SDS011;10455;48.732;10.266;2023-07-31T07:11:47;3.20;;;2.55;;
20593;SDS011;10455;48.732;10.266;2023-07-31T07:16:52;4.28;;;2.30;;
20593;SDS011;10455;48.732;10.266;2023-07-31T07:21:53;3.17;;;2.30;;
20593;SDS011;10455;48.732;10.266;2023-07-31T07:26:56;4.78;;;2.42;;
20593;SDS011;10455;48.732;10.266;2023-07-31T07:31:59;5.70;;;2.70;;
20593;SDS011;10455;48.732;10.266;2023-07-31T07:37:01;2.65;;;2.42;;
20593;SDS011;10455;48.732;10.266;2023-07-31T07:42:03;2.40;;;2.15;;
20593;SDS011;10455;48.732;10.266;2023-07-31T07:47:06;2.72;;;2.25;;
20593;SDS011;10455;48.732;10.266;2023-07-31T07:52:08;4.30;;;2.40;;
20593;SDS011;10455;48.732;10.266;2023-07-31T07:57:10;6.75;;;2.60;;
20593;SDS011;10455;48.732;10.266;2023-07-31T08:02:13;4.28;;;2.60;;
20593;SDS011;10455;48.732;10.266;2023-07-31T08:07:15;4.97;;;2.70;;
20593;SDS011;10455;48.732;10.266;2023-07-31T08:12:17;3.50;;;2.92;;
20593;SDS011;10455;48.732;10.266;2023-07-31T08:17:20;4.78;;;2.70;;
20593;SDS011;10455;48.732;10.266;2023-07-31T08:22:22;3.78;;;2.72;;
20593;SDS011;10455;48.732;10.266;2023-07-31T08:27:24;4.47;;;2.83;;
20593;SDS011;10455;48.732;10.266;2023-07-31T08:32:27;4.82;;;2.80;;
20593;SDS011;10455;48.732;10.266;2023-07-31T08:37:29;5.80;;;3.30;;
20593;SDS011;10455;48.732;10.266;2023-07-31T08:42:31;5.03;;;3.17;;
20593;SDS011;10455;48.732;10.266;2023-07-31T08:47:35;5.65;;;3.17;;
20593;SDS011;10455;48.732;10.266;2023-07-31T08:52:37;4.97;;;3.13;;
20593;SDS011;10455;48.732;10.266;2023-07-31T08:57:39;3.75;;;2.58;;
20593;SDS011;10455;48.732;10.266;2023-07-31T09:02:45;5.50;;;3.00;;
20593;SDS011;10455;48.732;10.266;2023-07-31T09:07:50;5.22;;;3.25;;
20593;SDS011;10455;48.732;10.266;2023-07-31T09:12:52;4.55;;;3.22;;
20593;SDS011;10455;48.732;10.266;2023-07-31T09:18:00;4.15;;;3.00;;
20593;SDS011;10455;48.732;10.266;2023-07-31T09:23:06;5.63;;;2.80;;
20593;SDS011;10455;48.732;10.266;2023-07-31T09:28:10;3.97;;;3.00;;
20593;SDS011;10455;48.732;10.266;2023-07-31T09:33:14;3.42;;;2.80;;
20593;SDS011;10455;48.732;10.266;2023-07-31T09:38:16;3.47;;;2.95;;
20593;SDS011;10455;48.732;10.266;2023-07-31T09:43:19;4.60;;;3.00;;
20593;SDS011;10455;48.732;10.266;2023-07-31T09:48:23;4.55;;;3.67;;
20593;SDS011;10455;48.732;10.266;2023-07-31T09:53:28;3.70;;;2.92;;
20593;SDS011;10455;48.732;10.266;2023-07-31T09:58:31;4.47;;;3.65;;
20593;SDS011;10455;48.732;10.266;2023-07-31T10:03:37;4.25;;;3.38;;
20593;SDS011;10455;48.732;10.266;2023-07-31T10:08:40;5.05;;;3.10;;
20593;SDS011;10455;48.732;10.266;2023-07-31T10:13:44;3.55;;;2.67;;
20593;SDS011;10455;48.732;10.266;2023-07-31T10:18:48;4.97;;;3.72;;
20593;SDS011;10455;48.732;10.266;2023-07-31T10:23:53;3.30;;;2.92;;
20593;SDS011;10455;48.732;10.266;2023-07-31T10:28:56;4.28;;;3.15;;
20593;SDS011;10455;48.732;10.266;2023-07-31T10:34:00;4.28;;;3.38;;
20593;SDS011;10455;48.732;10.266;2023-07-31T10:39:03;4.25;;;2.88;;
20593;SDS011;10455;48.732;10.266;2023-07-31T10:44:05;3.17;;;2.88;;
20593;SDS011;10455;48.732;10.266;2023-07-31T10:49:10;4.70;;;3.00;;
20593;SDS011;10455;48.732;10.266;2023-07-31T10:54:22;2.75;;;2.50;;
20593;SDS011;10455;48.732;10.266;2023-07-31T10:59:26;4.55;;;3.20;;
20593;SDS011;10455;48.732;10.266;2023-07-31T11:04:30;4.47;;;2.67;;
20593;SDS011;10455;48.732;10.266;2023-07-31T11:09:32;3.67;;;3.08;;
20593;SDS011;10455;48.732;10.266;2023-07-31T11:14:35;4.00;;;2.88;;
20593;SDS011;10455;48.732;10.266;2023-07-31T11:19:38;4.30;;;3.00;;
20593;SDS011;10455;48.732;10.266;2023-07-31T11:24:40;4.88;;;3.03;;
20593;SDS011;10455;48.732;10.266;2023-07-31T11:29:43;5.53;;;3.10;;
20593;SDS011;10455;48.732;10.266;2023-07-31T11:34:53;3.58;;;2.95;;
20593;SDS011;10455;48.732;10.266;2023-07-31T11:39:58;5.68;;;3.40;;
20593;SDS011;10455;48.732;10.266;2023-07-31T11:45:02;4.10;;;3.10;;
20593;SDS011;10455;48.732;10.266;2023-07-31T11:50:06;4.03;;;3.00;;
20593;SDS011;10455;48.732;10.266;2023-07-31T11:55:12;4.93;;;3.05;;
20593;SDS011;10455;48.732;10.266;2023-07-31T12:00:15;2.80;;;2.50;;
20593;SDS011;10455;48.732;10.266;2023-07-31T12:05:20;4.80;;;3.08;;
20593;SDS011;10455;48.732;10.266;2023-07-31T12:10:24;5.20;;;3.45;;
20593;SDS011;10455;48.732;10.266;2023-07-31T12:15:31;4.85;;;3.00;;
20593;SDS011;10455;48.732;10.266;2023-07-31T12:20:42;3.85;;;3.03;;
20593;SDS011;10455;48.732;10.266;2023-07-31T12:25:45;5.10;;;2.90;;
20593;SDS011;10455;48.732;10.266;2023-07-31T12:30:47;4.05;;;3.10;;
20593;SDS011;10455;48.732;10.266;2023-07-31T12:35:50;3.67;;;3.28;;
20593;SDS011;10455;48.732;10.266;2023-07-31T12:40:54;5.43;;;3.80;;
20593;SDS011;10455;48.732;10.266;2023-07-31T12:45:56;3.95;;;3.35;;
20593;SDS011;10455;48.732;10.266;2023-07-31T12:50:59;4.13;;;3.22;;
20593;SDS011;10455;48.732;10.266;2023-07-31T12:56:01;4.20;;;3.28;;
20593;SDS011;10455;48.732;10.266;2023-07-31T13:01:03;3.58;;;3.28;;
20593;SDS011;10455;48.732;10.266;2023-07-31T13:06:07;4.80;;;3.80;;
20593;SDS011;10455;48.732;10.266;2023-07-31T13:11:09;3.55;;;3.25;;
20593;SDS011;10455;48.732;10.266;2023-07-31T13:16:11;5.70;;;3.45;;
20593;SDS011;10455;48.732;10.266;2023-07-31T13:21:14;8.73;;;3.80;;
20593;SDS011;10455;48.732;10.266;2023-07-31T13:26:16;6.30;;;3.50;;
20593;SDS011;10455;48.732;10.266;2023-07-31T13:31:18;4.68;;;3.65;;
20593;SDS011;10455;48.732;10.266;2023-07-31T13:36:21;3.40;;;3.10;;
20593;SDS011;10455;48.732;10.266;2023-07-31T13:41:23;7.75;;;3.72;;
20593;SDS011;10455;48.732;10.266;2023-07-31T13:46:26;4.15;;;3.10;;
20593;SDS011;10455;48.732;10.266;2023-07-31T13:51:29;4.03;;;3.63;;
20593;SDS011;10455;48.732;10.266;2023-07-31T13:56:31;4.70;;;3.58;;
20593;SDS011;10455;48.732;10.266;2023-07-31T14:01:33;5.38;;;3.53;;
20593;SDS011;10455;48.732;10.266;2023-07-31T14:06:36;5.43;;;3.72;;
20593;SDS011;10455;48.732;10.266;2023-07-31T14:11:38;6.28;;;3.80;;
20593;SDS011;10455;48.732;10.266;2023-07-31T14:16:40;5.50;;;3.63;;
20593;SDS011;10455;48.732;10.266;2023-07-31T14:21:43;4.15;;;3.75;;
20593;SDS011;10455;48.732;10.266;2023-07-31T14:26:45;7.40;;;3.90;;
20593;SDS011;10455;48.732;10.266;2023-07-31T14:31:46;3.80;;;3.08;;
20593;SDS011;10455;48.732;10.266;2023-07-31T14:36:50;4.15;;;3.65;;
20593;SDS011;10455;48.732;10.266;2023-07-31T14:41:51;5.97;;;3.78;;
20593;SDS011;10455;48.732;10.266;2023-07-31T14:46:57;4.30;;;3.60;;
20593;SDS011;10455;48.732;10.266;2023-07-31T14:52:00;3.50;;;3.10;;
20593;SDS011;10455;48.732;10.266;2023-07-31T14:57:02;6.90;;;4.15;;
20593;SDS011;10455;48.732;10.266;2023-07-31T15:02:04;6.15;;;4.30;;
20593;SDS011;10455;48.732;10.266;2023-07-31T15:07:08;6.15;;;3.67;;
20593;SDS011;10455;48.732;10.266;2023-07-31T15:12:10;6.97;;;4.20;;
20593;SDS011;10455;48.732;10.266;2023-07-31T15:17:12;5.70;;;3.90;;
20593;SDS011;10455;48.732;10.266;2023-07-31T15:22:15;6.15;;;3.75;;
20593;SDS011;10455;48.732;10.266;2023-07-31T15:27:18;4.03;;;3.53;;
20593;SDS011;10455;48.732;10.266;2023-07-31T15:32:21;4.50;;;3.72;;
20593;SDS011;10455;48.732;10.266;2023-07-31T15:37:25;5.68;;;4.00;;
20593;SDS011;10455;48.732;10.266;2023-07-31T15:42:26;4.78;;;3.60;;
20593;SDS011;10455;48.732;10.266;2023-07-31T15:47:28;5.13;;;3.97;;
20593;SDS011;10455;48.732;10.266;2023-07-31T15:52:31;5.03;;;3.92;;
20593;SDS011;10455;48.732;10.266;2023-07-31T15:57:33;3.60;;;3.25;;
20593;SDS011;10455;48.732;10.266;2023-07-31T16:02:35;4.15;;;3.50;;
20593;SDS011;10455;48.732;10.266;2023-07-31T16:07:39;4.43;;;3.42;;
20593;SDS011;10455;48.732;10.266;2023-07-31T16:12:41;5.28;;;3.60;;
20593;SDS011;10455;48.732;10.266;2023-07-31T16:17:42;6.20;;;3.80;;
20593;SDS011;10455;48.732;10.266;2023-07-31T16:22:46;6.10;;;3.47;;
20593;SDS011;10455;48.732;10.266;2023-07-31T16:27:49;4.55;;;3.65;;
20593;SDS011;10455;48.732;10.266;2023-07-31T16:32:51;5.60;;;4.15;;
20593;SDS011;10455;48.732;10.266;2023-07-31T16:37:55;5.15;;;4.30;;
20593;SDS011;10455;48.732;10.266;2023-07-31T16:42:56;4.10;;;3.65;;
20593;SDS011;10455;48.732;10.266;2023-07-31T16:47:59;5.07;;;3.85;;
20593;SDS011;10455;48.732;10.266;2023-07-31T16:53:03;4.40;;;4.00;;
20593;SDS011;10455;48.732;10.266;2023-07-31T16:58:05;5.13;;;3.80;;
20593;SDS011;10455;48.732;10.266;2023-07-31T17:03:07;7.47;;;4.40;;
20593;SDS011;10455;48.732;10.266;2023-07-31T17:08:10;5.90;;;3.50;;
20593;SDS011;10455;48.732;10.266;2023-07-31T17:13:14;4.53;;;3.72;;
20593;SDS011;10455;48.732;10.266;2023-07-31T17:18:15;5.47;;;3.50;;
20593;SDS011;10455;48.732;10.266;2023-07-31T17:23:19;5.68;;;3.70;;
20593;SDS011;10455;48.732;10.266;2023-07-31T17:28:20;4.13;;;3.55;;
20593;SDS011;10455;48.732;10.266;2023-07-31T17:33:22;4.80;;;3.15;;
20593;SDS011;10455;48.732;10.266;2023-07-31T17:38:26;5.10;;;3.70;;
20593;SDS011;10455;48.732;10.266;2023-07-31T17:43:28;4.75;;;3.42;;
20593;SDS011;10455;48.732;10.266;2023-07-31T17:48:30;4.93;;;3.38;;
20593;SDS011;10455;48.732;10.266;2023-07-31T17:53:33;3.85;;;3.50;;
20593;SDS011;10455;48.732;10.266;2023-07-31T17:58:35;7.53;;;3.65;;
20593;SDS011;10455;48.732;10.266;2023-07-31T18:03:37;4.13;;;3.70;;
20593;SDS011;10455;48.732;10.266;2023-07-31T18:08:40;6.38;;;3.88;;
20593;SDS011;10455;48.732;10.266;2023-07-31T18:13:42;4.35;;;3.95;;
20593;SDS011;10455;48.732;10.266;2023-07-31T18:18:44;4.30;;;3.70;;
20593;SDS011;10455;48.732;10.266;2023-07-31T18:23:47;5.28;;;3.53;;
20593;SDS011;10455;48.732;10.266;2023-07-31T18:28:49;6.35;;;3.72;;
20593;SDS011;10455;48.732;10.266;2023-07-31T18:33:51;4.72;;;3.65;;
20593;SDS011;10455;48.732;10.266;2023-07-31T18:38:54;4.53;;;3.70;;
20593;SDS011;10455;48.732;10.266;2023-07-31T18:43:57;6.10;;;3.72;;
20593;SDS011;10455;48.732;10.266;2023-07-31T18:48:59;5.68;;;3.50;;
20593;SDS011;10455;48.732;10.266;2023-07-31T18:54:02;4.45;;;3.90;;
20593;SDS011;10455;48.732;10.266;2023-07-31T18:59:04;4.03;;;3.63;;
20593;SDS011;10455;48.732;10.266;2023-07-31T19:04:07;6.30;;;3.72;;
20593;SDS011;10455;48.732;10.266;2023-07-31T19:09:10;4.32;;;3.88;;
20593;SDS011;10455;48.732;10.266;2023-07-31T19:14:13;5.35;;;3.80;;
20593;SDS011;10455;48.732;10.266;2023-07-31T19:19:15;4.35;;;3.95;;
20593;SDS011;10455;48.732;10.266;2023-07-31T19:24:18;4.63;;;3.80;;
20593;SDS011;10455;48.732;10.266;2023-07-31T19:29:21;4.43;;;3.67;;
20593;SDS011;10455;48.732;10.266;2023-07-31T19:34:23;7.82;;;4.05;;
20593;SDS011;10455;48.732;10.266;2023-07-31T19:39:27;7.03;;;3.80;;
20593;SDS011;10455;48.732;10.266;2023-07-31T19:44:29;7.28;;;4.18;;
20593;SDS011;10455;48.732;10.266;2023-07-31T19:49:31;4.05;;;3.65;;
20593;SDS011;10455;48.732;10.266;2023-07-31T19:54:35;4.97;;;4.25;;
20593;SDS011;10455;48.732;10.266;2023-07-31T19:59:37;5.63;;;4.55;;
20593;SDS011;10455;48.732;10.266;2023-07-31T20:04:39;7.57;;;5.10;;
20593;SDS011;10455;48.732;10.266;2023-07-31T20:09:42;7.40;;;5.45;;
20593;SDS011;10455;48.732;10.266;2023-07-31T20:14:44;7.00;;;5.00;;
20593;SDS011;10455;48.732;10.266;2023-07-31T20:19:46;6.22;;;5.63;;
20593;SDS011;10455;48.732;10.266;2023-07-31T20:24:49;9.32;;;6.10;;
20593;SDS011;10455;48.732;10.266;2023-07-31T20:29:51;10.43;;;6.50;;
20593;SDS011;10455;48.732;10.266;2023-07-31T20:34:53;6.25;;;5.65;;
20593;SDS011;10455;48.732;10.266;2023-07-31T20:39:56;8.32;;;5.38;;
20593;SDS011;10455;48.732;10.266;2023-07-31T20:45:00;9.60;;;5.40;;
20593;SDS011;10455;48.732;10.266;2023-07-31T20:50:02;9.25;;;5.60;;
20593;SDS011;10455;48.732;10.266;2023-07-31T20:55:06;5.97;;;5.35;;
20593;SDS011;10455;48.732;10.266;2023-07-31T21:00:08;7.35;;;5.03;;
20593;SDS011;10455;48.732;10.266;2023-07-31T21:05:11;8.60;;;5.65;;
20593;SDS011;10455;48.732;10.266;2023-07-31T21:10:14;7.70;;;5.25;;
20593;SDS011;10455;48.732;10.266;2023-07-31T21:15:16;7.65;;;5.45;;
20593;SDS011;10455;48.732;10.266;2023-07-31T21:20:18;7.85;;;5.28;;
20593;SDS011;10455;48.732;10.266;2023-07-31T21:25:21;7.45;;;5.15;;
20593;SDS011;10455;48.732;10.266;2023-07-31T21:30:23;7.35;;;5.22;;
20593;SDS011;10455;48.732;10.266;2023-07-31T21:35:25;7.78;;;5.55;;
20593;SDS011;10455;48.732;10.266;2023-07-31T21:40:28;8.13;;;5.25;;
20593;SDS011;10455;48.732;10.266;2023-07-31T21:45:30;6.57;;;4.90;;
20593;SDS011;10455;48.732;10.266;2023-07-31T21:50:32;7.35;;;4.93;;
20593;SDS011;10455;48.732;10.266;2023-07-31T21:55:35;9.07;;;5.85;;
20593;SDS011;10455;48.732;10.266;2023-07-31T22:00:37;9.43;;;6.43;;
20593;SDS011;10455;48.732;10.266;2023-07-31T22:05:39;8.25;;;5.93;;
20593;SDS011;10455;48.732;10.266;2023-07-31T22:10:43;9.07;;;6.80;;
20593;SDS011;10455;48.732;10.266;2023-07-31T22:15:45;9.70;;;6.20;;
20593;SDS011;10455;48.732;10.266;2023-07-31T22:20:48;7.70;;;5.80;;
20593;SDS011;10455;48.732;10.266;2023-07-31T22:25:51;7.20;;;5.90;;
20593;SDS011;10455;48.732;10.266;2023-07-31T22:30:53;8.90;;;6.43;;
20593;SDS011;10455;48.732;10.266;2023-07-31T22:35:55;10.43;;;6.63;;
20593;SDS011;10455;48.732;10.266;2023-07-31T22:40:59;9.18;;;6.40;;
20593;SDS011;10455;48.732;10.266;2023-07-31T22:46:00;6.75;;;6.05;;
20593;SDS011;10455;48.732;10.266;2023-07-31T22:51:05;9.88;;;5.88;;
20593;SDS011;10455;48.732;10.266;2023-07-31T22:56:09;8.57;;;6.53;;
20593;SDS011;10455;48.732;10.266;2023-07-31T23:01:11;7.65;;;5.60;;
20593;SDS011;10455;48.732;10.266;2023-07-31T23:06:13;6.40;;;5.35;;
20593;SDS011;10455;48.732;10.266;2023-07-31T23:11:16;7.50;;;5.45;;
20593;SDS011;10455;48.732;10.266;2023-07-31T23:16:18;7.38;;;5.57;;
20593;SDS011;10455;48.732;10.266;2023-07-31T23:21:20;6.43;;;5.82;;
20593;SDS011;10455;48.732;10.266;2023-07-31T23:26:23;6.78;;;5.35;;
20593;SDS011;10455;48.732;10.266;2023-07-31T23:31:25;9.05;;;6.18;;
20593;SDS011;10455;48.732;10.266;2023-07-31T23:36:27;7.57;;;5.75;;
20593;SDS011;10455;48.732;10.266;2023-07-31T23:41:31;8.68;;;6.18;;
20593;SDS011;10455;48.732;10.266;2023-07-31T23:46:32;9.05;;;6.05;;
20593;SDS011;10455;48.732;10.266;2023-07-31T23:51:34;8.95;;;7.13;;
20593;SDS011;10455;48.732;10.266;2023-07-31T23:56:37;11.75;;;8.07;;
